createdAt,value
2022-11-17T00:02:14.036Z,18.73
2022-11-17T00:04:42.043Z,20.15
2022-11-17T00:07:10.430Z,21.10
2022-11-17T00:09:38.496Z,19.65
2022-11-17T00:12:29.897Z,21.48
2022-11-17T00:15:00.558Z,20.33
2022-11-17T00:17:28.555Z,22.25
2022-11-17T00:20:13.849Z,21.52
2022-11-17T00:22:41.854Z,25.35
2022-11-17T00:25:10.090Z,21.85
2022-11-17T00:27:39.455Z,21.40
2022-11-17T00:30:09.100Z,20.67
2022-11-17T00:32:54.528Z,24.02
2022-11-17T00:35:22.572Z,27.08
2022-11-17T00:38:04.452Z,22.60
2022-11-17T00:40:32.525Z,22.35
2022-11-17T00:43:01.859Z,23.30
2022-11-17T00:45:29.887Z,22.83
2022-11-17T00:47:57.879Z,23.77
2022-11-17T00:50:25.866Z,23.80
2022-11-17T00:52:53.875Z,25.90
2022-11-17T00:55:21.950Z,23.70
2022-11-17T00:57:50.019Z,25.42
2022-11-17T01:00:21.192Z,26.60
2022-11-17T01:02:49.203Z,27.05
2022-11-17T01:05:17.397Z,25.98
2022-11-17T01:07:46.875Z,27.70
2022-11-17T01:12:42.718Z,27.95
2022-11-17T01:15:11.578Z,32.33
2022-11-17T01:17:40.940Z,26.08
2022-11-17T01:20:10.398Z,26.17
2022-11-17T01:25:07.134Z,27.02
2022-11-17T01:27:35.172Z,27.77
2022-11-17T01:30:03.164Z,27.50
2022-11-17T01:32:31.194Z,26.73
2022-11-17T01:35:00.778Z,32.03
2022-11-17T01:37:28.826Z,30.17
2022-11-17T01:39:57.074Z,34.40
2022-11-17T01:42:28.109Z,29.95
2022-11-17T01:45:02.374Z,35.42
2022-11-17T01:47:40.925Z,28.80
2022-11-17T01:50:20.177Z,32.13
2022-11-17T01:52:51.452Z,28.50
2022-11-17T01:55:21.781Z,29.15
2022-11-17T01:57:53.926Z,30.77
2022-11-17T02:00:22.096Z,28.05
2022-11-17T02:02:51.411Z,31.58
2022-11-17T02:08:00.724Z,23.92
2022-11-17T02:10:32.534Z,30.58
2022-11-17T02:13:02.340Z,33.20
2022-11-17T02:15:31.263Z,27.38
2022-11-17T02:18:00.383Z,30.63
2022-11-17T02:20:44.362Z,27.05
2022-11-17T02:23:48.933Z,26.98
2022-11-17T02:26:31.991Z,27.70
2022-11-17T02:29:05.868Z,28.15
2022-11-17T02:31:40.410Z,28.70
2022-11-17T02:34:19.618Z,32.38
2022-11-17T02:36:53.436Z,25.80
2022-11-17T02:39:25.252Z,25.13
2022-11-17T02:41:58.308Z,28.63
2022-11-17T02:44:36.684Z,27.73
2022-11-17T02:47:10.752Z,29.23
2022-11-17T02:49:42.336Z,27.58
2022-11-17T02:52:10.743Z,29.20
2022-11-17T02:54:38.739Z,30.02
2022-11-17T02:57:06.768Z,31.23
2022-11-17T02:59:42.158Z,28.23
2022-11-17T03:02:23.450Z,31.02
2022-11-17T03:05:04.600Z,28.73
2022-11-17T03:07:46.953Z,28.08
2022-11-17T03:10:18.455Z,29.45
2022-11-17T03:12:54.834Z,29.20
2022-11-17T03:15:35.111Z,30.60
2022-11-17T03:18:10.038Z,29.05
2022-11-17T03:20:44.272Z,26.90
2022-11-17T03:23:19.147Z,28.95
2022-11-17T03:25:54.696Z,36.78
2022-11-17T03:28:27.136Z,28.38
2022-11-17T03:30:57.972Z,31.70
2022-11-17T03:33:28.475Z,27.73
2022-11-17T03:36:01.401Z,29.55
2022-11-17T03:38:33.402Z,34.97
2022-11-17T03:41:04.603Z,33.80
2022-11-17T03:43:33.965Z,33.28
2022-11-17T03:48:38.767Z,28.20
2022-11-17T03:51:11.317Z,25.08
2022-11-17T03:53:39.349Z,25.10
2022-11-17T03:56:17.225Z,22.13
2022-11-17T03:58:55.313Z,19.90
2022-11-17T04:01:25.735Z,16.92
2022-11-17T04:03:54.181Z,17.35
2022-11-17T04:06:22.206Z,14.77
2022-11-17T04:08:50.179Z,16.35
2022-11-17T04:11:35.568Z,16.52
2022-11-17T04:14:21.164Z,14.88
2022-11-17T04:16:50.561Z,15.48
2022-11-17T04:19:18.564Z,12.18
2022-11-17T04:21:46.509Z,14.18
2022-11-17T04:24:14.523Z,13.13
2022-11-17T04:26:59.829Z,11.45
2022-11-17T04:29:28.444Z,14.77
2022-11-17T04:31:57.837Z,12.27
2022-11-17T04:34:25.875Z,12.52
2022-11-17T04:36:53.875Z,11.88
2022-11-17T04:39:21.925Z,11.35
2022-11-17T04:41:56.782Z,12.07
2022-11-17T04:44:27.303Z,13.35
2022-11-17T04:46:57.378Z,12.52
2022-11-17T04:49:27.136Z,12.88
2022-11-17T04:51:55.418Z,15.93
2022-11-17T04:54:25.548Z,14.75
2022-11-17T04:56:54.260Z,14.15
2022-11-17T04:59:22.778Z,16.13
2022-11-17T05:01:51.476Z,15.13
2022-11-17T05:04:35.739Z,12.40
2022-11-17T05:07:03.807Z,17.17
2022-11-17T05:09:31.903Z,15.30
2022-11-17T05:12:17.646Z,12.73
2022-11-17T05:14:47.607Z,11.80
2022-11-17T05:17:14.664Z,15.20
2022-11-17T05:19:45.675Z,13.98
2022-11-17T05:22:33.411Z,15.80
2022-11-17T05:25:01.722Z,13.32
2022-11-17T05:27:29.786Z,15.15
2022-11-17T05:29:57.807Z,13.45
2022-11-17T05:32:25.824Z,15.13
2022-11-17T05:34:55.176Z,14.85
2022-11-17T05:37:23.190Z,17.02
2022-11-17T05:39:51.203Z,19.17
2022-11-17T05:42:19.427Z,20.00
2022-11-17T05:44:48.445Z,16.38
2022-11-17T05:47:16.664Z,19.85
2022-11-17T05:49:44.837Z,17.60
2022-11-17T05:52:14.219Z,20.80
2022-11-17T05:54:42.266Z,21.67
2022-11-17T05:57:13.342Z,25.40
2022-11-17T05:59:46.831Z,22.50
2022-11-17T06:02:19.332Z,21.15
2022-11-17T06:04:49.617Z,25.35
2022-11-17T06:07:20.529Z,24.15
2022-11-17T06:09:48.776Z,26.83
2022-11-17T06:12:16.865Z,22.65
2022-11-17T06:14:44.858Z,25.95
2022-11-17T06:17:22.515Z,24.40
2022-11-17T06:19:54.997Z,24.88
2022-11-17T06:22:26.354Z,36.38
2022-11-17T06:24:55.302Z,25.73
2022-11-17T06:27:25.471Z,31.40
2022-11-17T06:29:54.969Z,31.35
2022-11-17T06:32:23.320Z,30.58
2022-11-17T06:34:55.840Z,30.60
2022-11-17T06:37:26.157Z,29.00
2022-11-17T06:39:54.317Z,31.00
2022-11-17T06:42:42.811Z,29.58
2022-11-17T06:45:11.945Z,38.57
2022-11-17T06:47:39.971Z,36.72
2022-11-17T06:50:08.615Z,34.92
2022-11-17T06:52:41.537Z,35.03
2022-11-17T06:55:10.023Z,30.33
2022-11-17T06:57:38.052Z,35.75
2022-11-17T07:00:07.245Z,36.72
2022-11-17T07:02:36.714Z,31.73
2022-11-17T07:05:05.130Z,31.65
2022-11-17T07:07:33.242Z,27.27
2022-11-17T07:10:02.697Z,31.85
2022-11-17T07:12:30.707Z,29.63
2022-11-17T07:14:58.724Z,29.75
2022-11-17T07:17:27.057Z,33.88
2022-11-17T07:19:55.529Z,33.80
2022-11-17T07:22:23.594Z,35.75
2022-11-17T07:24:51.664Z,28.88
2022-11-17T07:27:21.101Z,28.25
2022-11-17T07:29:49.160Z,32.38
2022-11-17T07:32:17.218Z,27.98
2022-11-17T07:34:45.300Z,26.60
2022-11-17T07:37:13.353Z,31.27
2022-11-17T07:39:41.472Z,24.75
2022-11-17T07:42:09.736Z,25.13
2022-11-17T07:44:39.178Z,22.45
2022-11-17T07:47:07.265Z,19.38
2022-11-17T07:49:35.360Z,29.88
2022-11-17T07:52:03.449Z,29.40
2022-11-17T07:54:31.493Z,33.70
2022-11-17T07:56:59.528Z,23.88
2022-11-17T07:59:27.610Z,26.88
2022-11-17T08:01:57.076Z,26.45
2022-11-17T08:06:53.072Z,24.58
2022-11-17T08:09:21.168Z,31.20
2022-11-17T08:11:49.512Z,21.45
2022-11-17T08:14:17.603Z,21.65
2022-11-17T08:16:45.645Z,26.50
2022-11-17T08:19:15.219Z,24.85
2022-11-17T08:24:13.490Z,25.45
2022-11-17T08:26:41.522Z,48.17
2022-11-17T08:29:09.789Z,33.75
2022-11-17T08:31:38.701Z,35.60
2022-11-17T08:34:06.795Z,26.05
2022-11-17T08:36:36.247Z,25.00
2022-11-17T08:39:04.729Z,38.33
2022-11-17T08:41:32.885Z,24.98
2022-11-17T08:44:01.012Z,24.40
2022-11-17T08:46:29.083Z,21.33
2022-11-17T08:48:57.448Z,21.90
2022-11-17T08:51:27.188Z,22.00
2022-11-17T08:53:56.891Z,19.10
2022-11-17T08:56:24.929Z,23.20
2022-11-17T08:58:52.978Z,25.83
2022-11-17T09:01:21.076Z,19.20
2022-11-17T09:03:49.548Z,18.65
2022-11-17T09:06:20.034Z,20.23
2022-11-17T09:08:48.619Z,17.50
2022-11-17T09:11:18.234Z,17.80
2022-11-17T09:16:15.558Z,18.77
2022-11-17T09:18:43.789Z,22.30
2022-11-17T09:21:15.083Z,20.67
2022-11-17T09:23:43.654Z,18.75
2022-11-17T09:26:13.792Z,15.23
2022-11-17T09:28:43.965Z,25.25
2022-11-17T09:31:13.836Z,21.73
2022-11-17T09:33:43.399Z,18.42
2022-11-17T09:36:12.407Z,21.75
2022-11-17T09:38:41.403Z,17.42
2022-11-17T09:41:30.567Z,18.38
2022-11-17T09:44:15.513Z,16.13
2022-11-17T09:46:55.318Z,19.58
2022-11-17T09:49:35.169Z,17.65
2022-11-17T09:52:10.385Z,16.77
2022-11-17T09:54:44.326Z,15.95
2022-11-17T09:57:22.583Z,17.23
2022-11-17T10:00:02.259Z,12.60
2022-11-17T10:02:30.714Z,15.25
2022-11-17T10:04:59.048Z,14.47
2022-11-17T10:07:28.605Z,15.45
2022-11-17T10:09:56.700Z,11.63
2022-11-17T10:12:32.117Z,11.15
2022-11-17T10:15:19.601Z,13.50
2022-11-17T10:17:47.753Z,14.15
2022-11-17T10:20:18.593Z,15.13
2022-11-17T10:22:48.467Z,13.52
2022-11-17T10:25:24.282Z,11.90
2022-11-17T10:27:54.182Z,17.27
2022-11-17T10:30:24.968Z,14.15
2022-11-17T10:32:54.830Z,11.45
2022-11-17T10:35:25.192Z,16.60
2022-11-17T10:37:56.477Z,12.93
2022-11-17T10:40:26.749Z,12.98
2022-11-17T10:43:22.039Z,28.10
2022-11-17T10:45:54.105Z,13.75
2022-11-17T10:48:28.420Z,95.90
2022-11-17T10:50:58.255Z,55.55
2022-11-17T10:53:46.711Z,84.60
2022-11-17T10:56:17.032Z,42.50
2022-11-17T10:58:59.379Z,74.13
2022-11-17T11:01:35.169Z,41.10
2022-11-17T11:04:04.784Z,39.42
2022-11-17T11:06:34.157Z,27.17
2022-11-17T11:09:06.237Z,29.83
2022-11-17T11:11:42.998Z,16.67
2022-11-17T11:14:18.425Z,14.13
2022-11-17T11:16:50.639Z,13.68
2022-11-17T11:19:21.023Z,15.82
2022-11-17T11:22:21.869Z,14.70
2022-11-17T11:24:57.242Z,13.18
2022-11-17T11:27:43.085Z,13.98
2022-11-17T11:30:13.515Z,15.80
2022-11-17T11:32:56.769Z,16.15
2022-11-17T11:35:55.834Z,15.02
2022-11-17T11:38:37.653Z,15.27
2022-11-17T11:41:22.110Z,15.00
2022-11-17T11:43:58.292Z,21.45
2022-11-17T11:46:38.565Z,17.35
2022-11-17T11:49:16.943Z,20.25
2022-11-17T11:51:47.582Z,18.20
2022-11-17T11:54:25.227Z,15.25
2022-11-17T11:56:54.485Z,14.70
2022-11-17T11:59:30.258Z,16.30
2022-11-17T12:02:08.224Z,17.33
2022-11-17T12:04:46.136Z,14.00
2022-11-17T12:07:18.499Z,17.92
2022-11-17T12:09:56.561Z,15.95
2022-11-17T12:12:31.523Z,14.20
2022-11-17T12:15:12.752Z,12.48
2022-11-17T12:17:59.107Z,14.13
2022-11-17T12:21:11.243Z,13.25
2022-11-17T12:23:55.626Z,12.82
2022-11-17T12:26:27.699Z,17.83
2022-11-17T12:29:31.908Z,13.35
2022-11-17T12:32:01.836Z,13.40
2022-11-17T12:34:32.087Z,12.77
2022-11-17T12:37:31.807Z,14.10
2022-11-17T12:40:02.689Z,13.77
2022-11-17T12:42:32.499Z,13.48
2022-11-17T12:45:12.051Z,12.18
2022-11-17T12:50:43.106Z,12.60
2022-11-17T12:53:52.652Z,12.00
2022-11-17T12:56:45.612Z,15.23
2022-11-17T12:59:47.754Z,11.23
2022-11-17T13:02:28.071Z,11.18
2022-11-17T13:05:00.858Z,11.85
2022-11-17T13:07:29.012Z,12.30
2022-11-17T13:10:00.005Z,13.60
2022-11-17T13:12:29.600Z,15.00
2022-11-17T13:17:29.793Z,12.25
2022-11-17T13:20:02.576Z,16.58
2022-11-17T13:22:30.700Z,13.00
2022-11-17T13:25:21.705Z,12.52
2022-11-17T13:27:55.974Z,14.02
2022-11-17T13:30:28.978Z,13.98
2022-11-17T13:32:58.539Z,15.10
2022-11-17T13:38:06.783Z,25.45
2022-11-17T13:40:37.956Z,36.63
2022-11-17T13:43:06.801Z,37.58
2022-11-17T13:45:34.910Z,11.57
2022-11-17T13:48:02.924Z,26.15
2022-11-17T13:50:37.786Z,34.03
2022-11-17T13:53:24.213Z,15.27
2022-11-17T13:55:54.349Z,19.25
2022-11-17T13:58:31.576Z,24.00
2022-11-17T14:01:00.417Z,23.40
2022-11-17T14:03:34.571Z,16.65
2022-11-17T14:06:04.665Z,16.40
2022-11-17T14:08:34.442Z,17.27
2022-11-17T14:11:14.360Z,14.15
2022-11-17T14:13:44.973Z,13.75
2022-11-17T14:16:26.786Z,13.73
2022-11-17T14:19:03.296Z,13.90
2022-11-17T14:21:32.126Z,12.45
2022-11-17T14:24:11.309Z,12.23
2022-11-17T14:26:45.335Z,14.20
2022-11-17T14:29:14.220Z,12.90
2022-11-17T14:31:43.199Z,12.00
2022-11-17T14:34:11.351Z,14.70
2022-11-17T14:36:40.481Z,17.17
2022-11-17T14:39:15.521Z,17.20
2022-11-17T14:41:46.227Z,15.15
2022-11-17T14:44:14.608Z,14.68
2022-11-17T14:46:42.905Z,16.25
2022-11-17T14:49:10.970Z,15.25
2022-11-17T14:51:39.012Z,13.65
2022-11-17T14:54:07.117Z,15.63
2022-11-17T14:56:35.846Z,16.40
2022-11-17T14:59:05.286Z,18.35
2022-11-17T15:04:34.320Z,21.70
2022-11-17T15:06:56.909Z,23.73
2022-11-17T15:09:24.948Z,19.52
2022-11-17T15:11:53.064Z,18.25
2022-11-17T15:14:22.449Z,23.42
2022-11-17T15:19:18.561Z,17.83
2022-11-17T15:21:46.609Z,15.57
2022-11-17T15:24:15.140Z,19.88
2022-11-17T15:26:43.518Z,17.67
2022-11-17T15:29:15.145Z,18.77
2022-11-17T15:31:45.008Z,20.27
2022-11-17T15:34:17.125Z,18.20
2022-11-17T15:36:47.863Z,20.52
2022-11-17T15:39:16.153Z,20.40
2022-11-17T15:41:44.890Z,21.15
2022-11-17T15:44:13.577Z,16.43
2022-11-17T15:46:47.188Z,20.65
2022-11-17T15:49:17.572Z,23.33
2022-11-17T15:51:46.115Z,22.60
2022-11-17T15:54:19.886Z,22.33
2022-11-17T15:56:48.962Z,23.15
2022-11-17T15:59:17.194Z,20.23
2022-11-17T16:01:45.759Z,24.88
2022-11-17T16:04:16.354Z,21.73
2022-11-17T16:06:45.878Z,21.05
2022-11-17T16:11:42.302Z,21.58
2022-11-17T16:14:11.665Z,22.52
2022-11-17T16:16:40.513Z,20.45
2022-11-17T16:19:08.833Z,23.73
2022-11-17T16:21:38.209Z,23.10
2022-11-17T16:24:08.088Z,21.60
2022-11-17T16:26:37.404Z,21.90
2022-11-17T16:29:07.392Z,29.65
2022-11-17T16:31:37.305Z,23.17
2022-11-17T16:34:06.934Z,25.63
2022-11-17T16:36:37.094Z,27.23
2022-11-17T16:39:08.399Z,25.85
2022-11-17T16:41:38.685Z,27.88
2022-11-17T16:44:09.451Z,26.60
2022-11-17T16:46:37.543Z,32.85
2022-11-17T16:49:07.575Z,27.63
2022-11-17T16:51:36.326Z,44.70
2022-11-17T16:54:07.228Z,68.78
2022-11-17T16:56:35.628Z,36.70
2022-11-17T16:59:03.752Z,34.35
2022-11-17T17:01:34.688Z,30.48
2022-11-17T17:04:04.233Z,33.50
2022-11-17T17:09:02.916Z,31.75
2022-11-17T17:11:33.332Z,31.17
2022-11-17T17:14:04.595Z,36.35
2022-11-17T17:16:34.181Z,34.72
2022-11-17T17:21:33.526Z,31.50
2022-11-17T17:24:01.562Z,39.67
2022-11-17T17:26:31.211Z,39.88
2022-11-17T17:31:32.148Z,41.13
2022-11-17T17:34:01.004Z,39.90
2022-11-17T17:36:29.755Z,35.38
2022-11-17T17:39:01.706Z,40.92
2022-11-17T17:41:31.512Z,43.80
2022-11-17T17:46:30.594Z,59.88
2022-11-17T17:48:59.290Z,98.25
2022-11-17T17:51:29.055Z,71.22
2022-11-17T17:53:58.369Z,85.63
2022-11-17T17:56:26.644Z,76.80
2022-11-17T17:58:56.078Z,69.45
2022-11-17T18:01:26.951Z,69.80
2022-11-17T18:04:01.024Z,52.35
2022-11-17T18:06:29.577Z,31.10
2022-11-17T18:08:58.906Z,44.05
2022-11-17T18:11:27.277Z,41.33
2022-11-17T18:13:55.632Z,53.10
2022-11-17T18:16:27.777Z,42.55
2022-11-17T18:18:59.019Z,80.57
2022-11-17T18:21:28.535Z,83.75
2022-11-17T18:23:58.154Z,92.22
2022-11-17T18:28:56.858Z,66.13
2022-11-17T18:31:28.560Z,59.90
2022-11-17T18:33:58.119Z,56.90
2022-11-17T18:38:54.548Z,71.32
2022-11-17T18:41:23.684Z,45.70
2022-11-17T18:43:52.374Z,54.33
2022-11-17T18:46:21.830Z,40.28
2022-11-17T18:48:52.685Z,63.58
2022-11-17T18:51:22.658Z,74.13
2022-11-17T18:53:52.525Z,66.57
2022-11-17T18:56:22.552Z,53.30
2022-11-17T18:58:51.924Z,69.70
2022-11-17T19:01:22.268Z,88.90
2022-11-17T19:03:53.459Z,101.85
2022-11-17T19:06:22.724Z,46.47
2022-11-17T19:08:51.564Z,63.67
2022-11-17T19:11:20.877Z,29.85
2022-11-17T19:13:49.305Z,41.38
2022-11-17T19:16:18.936Z,75.38
2022-11-17T19:21:19.150Z,75.83
2022-11-17T19:23:51.933Z,31.58
2022-11-17T19:26:22.064Z,32.63
2022-11-17T19:28:50.688Z,39.25
2022-11-17T19:31:20.209Z,58.00
2022-11-17T19:33:49.544Z,70.95
2022-11-17T19:36:20.867Z,59.00
2022-11-17T19:38:49.937Z,65.35
2022-11-17T19:41:19.996Z,35.40
2022-11-17T19:43:48.315Z,46.92
2022-11-17T19:46:18.303Z,69.72
2022-11-17T19:48:46.428Z,33.10
2022-11-17T19:51:16.877Z,85.10
2022-11-17T19:53:46.697Z,43.60
2022-11-17T19:56:14.888Z,65.10
2022-11-17T19:58:43.184Z,54.83
2022-11-17T20:01:13.187Z,69.57
2022-11-17T20:03:42.158Z,65.18
2022-11-17T20:06:11.842Z,79.75
2022-11-17T20:08:40.657Z,54.70
2022-11-17T20:11:13.382Z,56.28
2022-11-17T20:13:42.356Z,58.25
2022-11-17T20:16:13.724Z,81.93
2022-11-17T20:18:41.935Z,32.05
2022-11-17T20:21:10.984Z,44.70
2022-11-17T20:23:39.708Z,21.98
2022-11-17T20:26:12.225Z,24.40
2022-11-17T20:28:40.537Z,37.15
2022-11-17T20:31:09.899Z,31.20
2022-11-17T20:33:38.756Z,43.03
2022-11-17T20:36:07.574Z,26.35
2022-11-17T20:38:36.692Z,47.05
2022-11-17T20:41:05.950Z,33.67
2022-11-17T20:43:36.176Z,49.08
2022-11-17T20:46:04.932Z,68.53
2022-11-17T20:48:34.235Z,44.40
2022-11-17T20:51:04.176Z,56.63
2022-11-17T20:53:32.962Z,44.30
2022-11-17T20:56:02.832Z,56.33
2022-11-17T20:58:32.017Z,41.35
2022-11-17T21:01:08.328Z,36.22
2022-11-17T21:03:36.670Z,31.67
2022-11-17T21:06:05.889Z,23.88
2022-11-17T21:08:35.693Z,30.40
2022-11-17T21:11:06.459Z,33.65
2022-11-17T21:13:35.469Z,44.92
2022-11-17T21:16:10.432Z,29.20
2022-11-17T21:18:39.740Z,24.08
2022-11-17T21:21:09.503Z,22.50
2022-11-17T21:23:38.100Z,33.17
2022-11-17T21:26:06.875Z,27.35
2022-11-17T21:28:35.299Z,31.45
2022-11-17T21:31:06.521Z,34.00
2022-11-17T21:33:36.564Z,27.38
2022-11-17T21:36:06.065Z,24.55
2022-11-17T21:38:34.117Z,28.35
2022-11-17T21:41:05.569Z,29.52
2022-11-17T21:43:36.590Z,30.40
2022-11-17T21:46:05.687Z,35.33
2022-11-17T21:48:36.535Z,28.08
2022-11-17T21:51:05.625Z,31.52
2022-11-17T21:53:34.172Z,19.35
2022-11-17T21:56:02.508Z,18.25
2022-11-17T21:58:30.991Z,29.33
2022-11-17T22:00:59.580Z,32.70
2022-11-17T22:03:27.749Z,11.27
2022-11-17T22:06:07.018Z,23.63
2022-11-17T22:08:37.155Z,17.92
2022-11-17T22:11:06.951Z,14.23
2022-11-17T22:13:35.134Z,18.17
2022-11-17T22:16:08.875Z,21.67
2022-11-17T22:18:37.053Z,15.05
2022-11-17T22:21:07.402Z,15.65
2022-11-17T22:23:35.918Z,14.63
2022-11-17T22:26:06.359Z,22.60
2022-11-17T22:28:34.450Z,18.67
2022-11-17T22:31:06.380Z,15.63
2022-11-17T22:33:34.622Z,18.30
2022-11-17T22:36:03.696Z,16.58
2022-11-17T22:38:33.551Z,23.13
2022-11-17T22:41:02.184Z,18.40
2022-11-17T22:43:31.089Z,14.97
2022-11-17T22:46:02.780Z,14.85
2022-11-17T22:48:31.189Z,16.25
2022-11-17T22:50:59.655Z,19.33
2022-11-17T22:53:28.371Z,27.08
2022-11-17T22:56:02.548Z,17.83
2022-11-17T22:58:30.632Z,18.38
2022-11-17T23:00:58.921Z,15.80
2022-11-17T23:03:27.238Z,15.45
2022-11-17T23:05:55.402Z,24.75
2022-11-17T23:08:23.410Z,12.20
2022-11-17T23:11:03.840Z,21.77
2022-11-17T23:13:40.793Z,16.92
2022-11-17T23:16:09.201Z,22.52
2022-11-17T23:18:37.415Z,11.18
2022-11-17T23:21:06.260Z,29.30
2022-11-17T23:23:35.424Z,32.38
2022-11-17T23:26:04.753Z,15.00
2022-11-17T23:28:33.261Z,30.40
2022-11-17T23:31:03.728Z,28.67
2022-11-17T23:33:34.657Z,33.67
2022-11-17T23:36:03.218Z,22.50
2022-11-17T23:38:31.959Z,38.22
2022-11-17T23:41:01.397Z,20.33
2022-11-17T23:43:29.724Z,37.50
2022-11-17T23:45:58.319Z,28.35
2022-11-17T23:48:27.730Z,43.10
2022-11-17T23:50:55.770Z,28.63
2022-11-17T23:53:23.789Z,20.20
2022-11-17T23:55:55.380Z,22.85
2022-11-17T23:58:23.476Z,19.02
